Time;durP1;ratioP1;P1;durP2;ratioP2;P2;SDS_P1;SDS_P2;PMS_P1;PMS_P2;Temp;Humidity;BMP_temperature;BMP_pressure;BME280_temperature;BME280_humidity;BME280_pressure;Samples;Min_cycle;Max_cycle;Signal;HPM_P1;HPM_P2
2022/06/22 00:05:07;;;;;;;1.33;1.20;;;;;;;19.41;50.94;96586.16;9957233;29;20063;-51
2022/06/22 00:10:33;;;;;;;;;;;;;;;19.39;50.82;96588.41;9949119;29;20067;-49
2022/06/22 00:15:59;;;;;;;1.45;1.00;;;;;;;19.39;50.97;96572.19;9959169;29;19936;-52
2022/06/22 00:21:25;;;;;;;1.50;1.08;;;;;;;19.39;50.85;96572.19;9944892;29;20067;-50
2022/06/22 00:26:54;;;;;;;1.10;1.00;;;;;;;19.39;50.85;96571.41;9953697;29;20541;-52
2022/06/22 00:32:26;;;;;;;1.23;1.13;;;;;;;19.38;50.96;96573.31;9959138;29;20070;-51
2022/06/22 00:37:45;;;;;;;1.42;1.10;;;;;;;19.39;50.92;96582.22;9944220;29;20058;-51
2022/06/22 00:43:05;;;;;;;1.58;1.10;;;;;;;19.40;50.88;96594.59;9964105;29;20063;-50
2022/06/22 00:48:33;;;;;;;1.00;1.00;;;;;;;19.39;51.02;96620.03;9967800;29;20055;-51
2022/06/22 00:53:56;;;;;;;1.60;1.10;;;;;;;19.39;50.94;96628.94;9919401;29;20495;-52
2022/06/22 00:59:32;;;;;;;1.25;1.15;;;;;;;19.39;51.02;96631.63;9952799;29;20062;-51
2022/06/22 01:05:46;;;;;;;1.17;1.08;;;;;;;19.38;50.86;96611.13;9923133;29;20062;-49
2022/06/22 01:12:16;;;;;;;1.20;1.10;;;;;;;19.38;50.90;96572.53;9903216;29;20071;-49
2022/06/22 01:16:53;;;;;;;1.35;1.25;;;;;;;19.38;50.91;96565.19;9950520;29;20063;-52
2022/06/22 01:22:15;;;;;;;1.20;1.10;;;;;;;19.38;50.90;96573.31;9942909;29;20062;-48
2022/06/22 01:27:36;;;;;;;1.35;1.00;;;;;;;19.38;50.88;96572.53;9949581;29;20061;-50
2022/06/22 01:32:57;;;;;;;1.25;1.20;;;;;;;19.37;50.90;96579.84;9942653;29;20116;-49
2022/06/22 01:38:28;;;;;;;1.00;0.90;;;;;;;19.38;50.95;96581.41;9947967;29;20054;-51
2022/06/22 01:44:11;;;;;;;1.65;1.30;;;;;;;19.36;50.75;96578.25;9935289;29;20066;-52
2022/06/22 01:49:41;;;;;;;1.48;1.38;;;;;;;19.36;50.81;96583.66;9952181;29;20067;-50
2022/06/22 01:55:09;;;;;;;1.85;1.67;;;;;;;19.36;50.85;96583.66;9935952;29;20058;-49
2022/06/22 02:00:29;;;;;;;2.25;2.00;;;;;;;19.35;50.61;96572.06;9923397;29;20723;-52
2022/06/22 02:05:50;;;;;;;2.38;2.17;;;;;;;19.36;50.83;96570.91;9924511;29;20058;-52
2022/06/22 02:11:16;;;;;;;2.35;2.15;;;;;;;19.37;50.72;96563.63;9917694;29;20070;-52
2022/06/22 02:16:37;;;;;;;3.65;2.83;;;;;;;19.36;50.71;96567.44;9947445;29;20054;-50
2022/06/22 02:21:58;;;;;;;3.67;2.65;;;;;;;19.36;50.74;96572.84;9936680;29;20069;-52
2022/06/22 02:27:20;;;;;;;3.15;2.85;;;;;;;19.35;50.75;96584.78;9935805;29;20050;-51
2022/06/22 02:32:43;;;;;;;4.65;3.33;;;;;;;19.35;50.66;96592.88;9935066;29;20137;-52
2022/06/22 02:38:05;;;;;;;4.32;3.53;;;;;;;19.34;50.66;96591.28;9934368;29;20055;-51
2022/06/22 02:49:17;;;;;;;5.25;4.22;;;;;;;19.34;50.74;96604.78;9978425;29;20128;-49
2022/06/22 02:54:42;;;;;;;5.63;4.30;;;;;;;19.34;50.60;96602.09;9949477;29;20066;-49
2022/06/22 03:00:04;;;;;;;6.55;4.88;;;;;;;19.34;50.65;96592.06;9924838;29;20069;-52
2022/06/22 03:05:24;;;;;;;6.13;4.80;;;;;;;19.34;50.67;96583.97;9960933;29;20480;-52
2022/06/22 03:10:44;;;;;;;5.82;4.70;;;;;;;19.34;50.73;96578.56;9919956;29;20116;-51
2022/06/22 03:16:04;;;;;;;6.10;5.00;;;;;;;19.34;50.79;96575.09;9935378;29;21383;-49
2022/06/22 03:21:23;;;;;;;6.18;5.07;;;;;;;19.33;50.68;96573.50;9933419;29;20063;-51
2022/06/22 03:26:53;;;;;;;6.00;5.22;;;;;;;19.33;50.70;96554.59;9934691;29;20630;-51
2022/06/22 03:32:45;;;;;;;6.32;5.00;;;;;;;19.34;50.68;96553.47;9924486;29;20059;-50
2022/06/22 03:38:26;;;;;;;6.82;5.05;;;;;;;19.31;50.56;96544.13;9919914;29;20566;-51
2022/06/22 03:43:59;;;;;;;6.07;4.47;;;;;;;19.32;50.64;96544.91;9919068;29;20147;-50
2022/06/22 03:49:41;;;;;;;5.00;4.32;;;;;;;19.33;50.70;96546.50;9926416;29;20066;-51
2022/06/22 03:55:05;;;;;;;4.90;4.35;;;;;;;19.32;50.61;96553.78;9932726;29;20062;-51
2022/06/22 04:00:25;;;;;;;4.95;4.20;;;;;;;19.31;50.65;96565.72;9938210;29;20078;-49
2022/06/22 04:05:47;;;;;;;6.82;4.40;;;;;;;19.35;50.57;96576.69;9938402;29;20055;-51
2022/06/22 04:11:14;;;;;;;4.50;3.78;;;;;;;19.36;50.79;96562.03;9945340;29;20062;-49
2022/06/22 04:16:37;;;;;;;4.18;3.78;;;;;;;19.36;50.42;96567.44;9926022;29;20059;-49
2022/06/22 04:22:01;;;;;;;4.28;3.78;;;;;;;19.36;50.75;96559.34;9941558;29;20678;-49
2022/06/22 04:27:35;;;;;;;6.63;3.92;;;;;;;19.39;51.02;96560.59;9922522;29;20403;-51
2022/06/22 04:33:12;;;;;;;3.85;3.40;;;;;;;19.42;51.12;96559.94;9942803;29;20119;-49
2022/06/22 04:38:35;;;;;;;3.95;3.55;;;;;;;19.44;51.06;96557.69;9957237;29;20055;-52
2022/06/22 04:43:56;;;;;;;4.20;3.35;;;;;;;19.44;51.17;96558.47;9937359;29;20067;-52
2022/06/22 04:49:23;;;;;;;4.40;3.20;;;;;;;19.49;51.14;96547.50;9943102;29;20042;-51
2022/06/22 04:54:44;;;;;;;4.03;3.10;;;;;;;19.50;51.30;96551.78;9949232;29;20092;-53
2022/06/22 05:00:15;;;;;;;3.13;2.22;;;;;;;19.39;49.70;96556.00;9941373;29;20050;-53
2022/06/22 05:05:35;;;;;;;3.35;1.67;;;;;;;19.25;49.26;96555.44;9937711;29;20070;-51
2022/06/22 05:10:59;;;;;;;1.98;1.77;;;;;;;19.17;49.13;96557.88;9943451;29;20062;-52
2022/06/22 05:16:22;;;;;;;3.30;1.83;;;;;;;19.22;49.64;96534.50;9945073;29;20107;-52
2022/06/22 05:21:46;;;;;;;3.55;2.08;;;;;;;19.26;49.80;96536.19;9931027;29;20063;-51
2022/06/22 05:27:07;;;;;;;4.15;2.40;;;;;;;19.30;49.95;96557.94;9953540;29;20082;-53
2022/06/22 05:32:41;;;;;;;3.55;2.20;;;;;;;19.31;50.00;96575.75;9920247;29;20062;-52
2022/06/22 05:38:02;;;;;;;2.88;1.88;;;;;;;19.33;50.01;96560.78;9942263;29;20550;-50
2022/06/22 05:43:23;;;;;;;2.95;2.13;;;;;;;19.33;50.12;96565.41;9951537;29;20511;-51
2022/06/22 05:48:44;;;;;;;2.20;2.00;;;;;;;19.32;50.14;96561.13;9948711;29;20063;-51
2022/06/22 05:54:28;;;;;;;3.08;1.80;;;;;;;19.33;50.29;96557.31;9938751;29;20488;-53
2022/06/22 05:59:59;;;;;;;2.63;1.90;;;;;;;19.34;50.32;96556.16;9931248;29;20115;-53
2022/06/22 06:05:25;;;;;;;2.25;1.83;;;;;;;19.32;50.46;96553.78;9939824;29;20116;-52
2022/06/22 06:10:44;;;;;;;2.55;1.80;;;;;;;19.31;50.59;96560.31;9955263;29;20113;-51
2022/06/22 06:16:08;;;;;;;3.20;2.40;;;;;;;19.33;50.64;96577.00;9945600;29;20055;-51
2022/06/22 06:21:33;;;;;;;2.40;1.90;;;;;;;19.32;50.57;96572.69;9937694;29;20070;-53
2022/06/22 06:32:46;;;;;;;2.83;1.90;;;;;;;19.33;50.75;96576.22;9926120;29;20066;-50
2022/06/22 06:38:18;;;;;;;2.72;1.73;;;;;;;19.33;50.75;96584.31;9932084;29;20478;-50
2022/06/22 06:43:54;;;;;;;1.95;1.77;;;;;;;19.33;50.99;96589.72;9948996;29;20192;-52
2022/06/22 06:49:17;;;;;;;2.72;1.98;;;;;;;19.34;50.92;96594.78;9934465;29;20062;-50
2022/06/22 06:54:41;;;;;;;2.05;1.52;;;;;;;19.33;50.99;96568.91;9929524;29;20062;-51
2022/06/22 07:00:04;;;;;;;1.70;1.60;;;;;;;19.34;50.96;96553.47;9916444;29;20519;-49
2022/06/22 07:05:25;;;;;;;2.05;1.63;;;;;;;19.34;51.00;96556.16;9929380;29;20067;-53
2022/06/22 07:10:51;;;;;;;2.83;1.52;;;;;;;19.33;51.12;96560.78;9940232;29;20499;-52
2022/06/22 07:16:14;;;;;;;2.22;1.88;;;;;;;19.35;51.25;96552.38;9915621;29;20537;-51
2022/06/22 07:21:39;;;;;;;2.28;1.70;;;;;;;19.34;51.29;96556.97;9938408;29;20070;-51
2022/06/22 07:27:16;;;;;;;2.33;1.60;;;;;;;19.36;51.13;96560.13;9933852;29;20058;-52
2022/06/22 07:32:50;;;;;;;1.55;1.42;;;;;;;19.37;51.16;96542.03;9954915;29;20050;-52
2022/06/22 07:38:41;;;;;;;3.45;1.65;;;;;;;19.38;51.25;96532.78;9967680;29;20066;-52
2022/06/22 07:44:22;;;;;;;1.75;1.38;;;;;;;19.40;51.25;96530.53;9957792;29;20427;-50
2022/06/22 07:49:49;;;;;;;1.60;1.50;;;;;;;19.39;51.29;96531.69;9975664;29;20042;-53
2022/06/22 07:55:20;;;;;;;1.75;1.50;;;;;;;19.41;51.42;96542.94;9950770;29;20408;-50
2022/06/22 08:00:40;;;;;;;1.60;1.50;;;;;;;19.42;51.42;96528.31;9949357;29;20054;-53
2022/06/22 08:06:06;;;;;;;1.80;1.60;;;;;;;19.43;51.50;96527.19;9950404;29;20496;-50
2022/06/22 08:11:41;;;;;;;1.60;1.50;;;;;;;19.43;51.49;96518.31;9938931;29;20503;-52
2022/06/22 08:17:04;;;;;;;2.05;1.60;;;;;;;19.44;51.59;96526.06;9943721;29;20567;-52
2022/06/22 08:22:23;;;;;;;1.50;1.40;;;;;;;19.45;51.66;96524.94;9931326;29;20055;-49
2022/06/22 08:27:43;;;;;;;1.50;1.40;;;;;;;19.44;51.56;96514.47;9940936;29;20468;-52
2022/06/22 08:33:08;;;;;;;1.45;1.35;;;;;;;19.45;51.67;96510.66;9919004;29;20496;-52
2022/06/22 08:38:41;;;;;;;1.50;1.40;;;;;;;19.44;51.77;96509.84;9930680;29;20062;-52
2022/06/22 08:44:03;;;;;;;1.88;1.40;;;;;;;19.44;51.72;96507.16;9918802;29;20567;-52
2022/06/22 08:49:28;;;;;;;1.40;1.30;;;;;;;19.44;51.84;96517.16;9938428;29;20058;-52
2022/06/22 08:55:09;;;;;;;1.40;1.30;;;;;;;19.43;51.68;96519.09;9954222;29;20062;-50
2022/06/22 09:00:36;;;;;;;1.50;1.40;;;;;;;19.43;51.96;96511.00;9951050;29;20054;-53
2022/06/22 09:06:19;;;;;;;2.00;1.70;;;;;;;19.44;51.93;96520.66;9952773;29;20055;-50
2022/06/22 09:12:01;;;;;;;1.40;1.30;;;;;;;19.44;52.02;96523.34;9927580;29;20059;-51
2022/06/22 09:17:51;;;;;;;1.70;1.50;;;;;;;19.45;52.08;96526.88;9943535;29;20509;-52
2022/06/22 09:23:51;;;;;;;1.48;1.38;;;;;;;19.45;52.11;96516.84;9934683;29;20407;-52
2022/06/22 09:29:42;;;;;;;1.40;1.30;;;;;;;19.45;52.08;96510.66;9885921;29;20128;-51
2022/06/22 09:35:26;;;;;;;1.45;1.30;;;;;;;19.44;52.09;96514.47;9914404;29;20128;-52
2022/06/22 09:41:04;;;;;;;1.30;1.20;;;;;;;19.45;52.11;96511.44;9947941;29;20487;-52
2022/06/22 09:46:47;;;;;;;1.50;1.40;;;;;;;19.45;51.88;96500.63;9938048;29;20054;-52
2022/06/22 09:52:09;;;;;;;1.70;1.40;;;;;;;19.45;51.62;96500.63;9915816;29;20454;-51
2022/06/22 09:57:36;;;;;;;1.48;1.38;;;;;;;19.45;51.49;96511.44;9941614;29;20055;-51
2022/06/22 10:03:10;;;;;;;1.30;1.20;;;;;;;19.45;51.43;96506.03;9948445;29;20063;-52
2022/06/22 10:09:05;;;;;;;1.50;1.40;;;;;;;19.47;50.79;96516.53;9931686;29;20055;-52
2022/06/22 10:14:25;;;;;;;2.35;1.30;;;;;;;19.45;50.73;96508.75;9940627;29;20208;-53
2022/06/22 10:20:14;;;;;;;1.30;1.20;;;;;;;19.45;50.49;96510.66;9943648;29;20059;-52
2022/06/22 10:25:45;;;;;;;1.58;1.48;;;;;;;19.44;50.30;96512.56;9922054;29;20066;-51
2022/06/22 10:31:14;;;;;;;1.83;1.38;;;;;;;19.40;49.46;96513.56;9947840;29;20510;-52
2022/06/22 10:36:43;;;;;;;1.17;1.10;;;;;;;19.42;50.08;96503.22;9923585;29;20123;-52
2022/06/22 10:48:09;;;;;;;1.20;1.10;;;;;;;19.44;50.35;96501.75;9974642;29;20058;-52
2022/06/22 10:53:46;;;;;;;1.00;1.00;;;;;;;19.45;50.49;96487.13;9958521;29;20058;-52
2022/06/22 10:59:05;;;;;;;1.13;1.10;;;;;;;19.48;50.35;96483.78;9960268;29;20465;-52
2022/06/22 11:05:06;;;;;;;1.23;1.13;;;;;;;19.47;50.19;96474.09;9952546;29;20059;-52
2022/06/22 11:11:03;;;;;;;1.15;1.05;;;;;;;19.47;50.12;96474.09;9935773;29;20503;-50
2022/06/22 11:16:45;;;;;;;1.10;1.00;;;;;;;19.48;49.87;96459.47;9947323;29;20068;-52
2022/06/22 11:22:27;;;;;;;1.30;1.20;;;;;;;19.49;49.67;96458.34;9940318;29;20473;-50
2022/06/22 11:34:04;;;;;;;1.25;1.15;;;;;;;19.48;49.25;96451.38;9945714;29;20058;-50
2022/06/22 11:40:11;;;;;;;1.15;1.05;;;;;;;19.49;48.61;96452.94;9937598;29;20077;-51
2022/06/22 11:45:50;;;;;;;1.17;1.10;;;;;;;19.50;48.44;96445.59;9931894;29;20063;-52
2022/06/22 11:51:28;;;;;;;1.27;1.17;;;;;;;19.48;48.09;96443.25;9955013;29;20628;-52
2022/06/22 11:56:59;;;;;;;1.10;1.00;;;;;;;19.48;48.14;96451.38;9943182;29;20059;-50
2022/06/22 12:02:35;;;;;;;1.73;1.13;;;;;;;19.49;47.66;96447.53;9948002;29;20420;-52
2022/06/22 12:08:16;;;;;;;1.10;1.00;;;;;;;19.49;47.32;96444.81;9931355;29;20610;-51
2022/06/22 12:19:41;;;;;;;0.93;0.93;;;;;;;19.49;46.96;96431.31;9943285;29;20084;-52
2022/06/22 12:25:24;;;;;;;1.00;1.00;;;;;;;19.49;46.23;96435.94;9929365;29;20067;-51
2022/06/22 12:31:11;;;;;;;1.10;0.95;;;;;;;19.49;46.31;96431.31;9943689;29;20075;-52
2022/06/22 12:36:38;;;;;;;0.80;0.80;;;;;;;19.47;46.12;96438.97;9942092;29;20059;-50
2022/06/22 12:42:43;;;;;;;0.85;0.85;;;;;;;19.47;45.62;96447.06;9926480;29;20077;-52
2022/06/22 12:48:24;;;;;;;1.00;1.00;;;;;;;19.48;45.63;96432.44;9741002;30;20129;-51
2022/06/22 12:54:08;;;;;;;1.10;0.90;;;;;;;19.47;45.49;96430.84;9940874;29;20084;-51
2022/06/22 12:59:32;;;;;;;0.70;0.70;;;;;;;19.49;45.39;96422.44;9957273;29;20054;-50
2022/06/22 13:04:57;;;;;;;0.70;0.70;;;;;;;19.49;45.06;96415.09;9940624;29;20076;-52
2022/06/22 13:10:20;;;;;;;0.90;0.90;;;;;;;19.48;45.26;96402.72;9956776;29;20050;-50
2022/06/22 13:15:47;;;;;;;1.08;1.00;;;;;;;19.48;45.22;96402.72;9947532;29;20059;-51
2022/06/22 13:21:22;;;;;;;1.15;0.80;;;;;;;19.49;44.87;96390.78;9926209;29;20071;-53
2022/06/22 13:27:06;;;;;;;1.67;0.82;;;;;;;19.49;45.30;96388.09;9938275;29;20134;-52
2022/06/22 13:32:27;;;;;;;1.90;0.90;;;;;;;19.51;45.19;96401.28;9935878;29;20527;-52
2022/06/22 13:38:01;;;;;;;0.90;0.90;;;;;;;19.51;45.78;96387.75;9937362;29;20419;-52
2022/06/22 13:43:56;;;;;;;1.65;0.98;;;;;;;19.51;44.53;96395.88;9921151;29;20128;-52
2022/06/22 13:49:33;;;;;;;3.08;1.27;;;;;;;19.49;45.93;96387.31;9964698;29;20062;-52
2022/06/22 13:54:58;;;;;;;2.17;0.90;;;;;;;19.50;46.47;96383.47;9953064;29;20714;-52
2022/06/22 14:00:24;;;;;;;1.23;0.95;;;;;;;19.51;46.58;96377.75;9950556;29;20631;-53
2022/06/22 14:05:53;;;;;;;2.38;1.00;;;;;;;19.52;47.01;96368.53;9927972;29;20070;-53
2022/06/22 14:11:17;;;;;;;;;;;;;;;19.50;46.08;96357.25;9931029;29;20103;-52
2022/06/22 14:16:51;;;;;;;1.30;0.85;;;;;;;19.50;47.01;96362.66;9925533;29;20416;-53
2022/06/22 14:22:28;;;;;;;1.05;0.98;;;;;;;19.51;47.28;96356.13;9938797;29;20492;-51
2022/06/22 14:27:59;;;;;;;1.17;1.00;;;;;;;19.53;46.63;96347.69;9928764;29;20367;-49
2022/06/22 14:33:20;;;;;;;3.53;1.20;;;;;;;19.50;47.13;96351.84;9950400;29;20062;-52
2022/06/22 14:38:46;;;;;;;1.88;1.05;;;;;;;19.51;47.60;96353.41;9934940;29;20055;-50
2022/06/22 14:44:15;;;;;;;1.75;1.05;;;;;;;19.52;47.77;96348.81;9943126;29;20065;-51
2022/06/22 14:49:40;;;;;;;22.67;2.58;;;;;;;19.50;47.66;96337.53;9965998;29;20062;-50
2022/06/22 14:55:08;;;;;;;1.42;1.08;;;;;;;19.51;48.01;96331.81;9967933;29;20055;-51
2022/06/22 15:00:35;;;;;;;1.20;1.13;;;;;;;19.52;48.26;96319.88;9953813;29;20485;-51
2022/06/22 15:06:12;;;;;;;1.27;1.10;;;;;;;19.51;47.71;96312.91;9948977;29;20122;-53
2022/06/22 15:17:36;;;;;;;1.48;1.02;;;;;;;19.55;48.52;96303.00;9941997;29;20061;-50
2022/06/22 15:23:03;;;;;;;1.20;1.08;;;;;;;19.61;48.85;96308.19;9927506;29;20059;-52
2022/06/22 15:28:36;;;;;;;4.53;0.90;;;;;;;19.60;49.11;96307.41;9953503;29;20455;-52
2022/06/22 15:34:12;;;;;;;1.40;1.00;;;;;;;19.61;49.54;96305.50;9955042;29;20058;-51
2022/06/22 15:39:35;;;;;;;3.50;1.20;;;;;;;19.62;49.41;96302.44;9933720;29;20119;-49
2022/06/22 15:45:00;;;;;;;5.35;1.25;;;;;;;19.63;49.60;96300.53;9947517;29;20065;-52
2022/06/22 15:50:20;;;;;;;1.77;0.90;;;;;;;19.63;49.76;96300.53;9946220;29;20415;-52
2022/06/22 15:56:11;;;;;;;4.75;1.20;;;;;;;19.62;50.16;96297.06;9948665;29;20116;-52
2022/06/22 16:01:52;;;;;;;1.00;0.90;;;;;;;19.62;50.41;96305.16;9950227;29;20067;-52
2022/06/22 16:07:29;;;;;;;4.28;1.10;;;;;;;19.63;50.79;96295.13;9941941;29;20058;-57
2022/06/22 16:13:29;;;;;;;2.47;1.08;;;;;;;19.65;51.05;96303.69;9935454;29;20063;-54
2022/06/22 16:19:27;;;;;;;3.65;1.08;;;;;;;19.64;51.25;96310.19;9911813;29;20068;-50
2022/06/22 16:24:58;;;;;;;2.78;1.05;;;;;;;19.65;51.33;96311.78;9924454;29;20062;-51
2022/06/22 16:30:18;;;;;;;2.88;1.30;;;;;;;19.65;51.31;96317.19;9924468;29;20054;-52
2022/06/22 16:35:57;;;;;;;3.13;1.00;;;;;;;19.63;51.28;96317.53;9927595;29;20466;-48
2022/06/22 16:41:31;;;;;;;1.88;1.00;;;;;;;19.64;51.22;96318.31;9952487;29;20073;-51
2022/06/22 16:46:56;;;;;;;1.83;1.02;;;;;;;19.67;51.66;96328.47;9926294;29;20059;-50
2022/06/22 16:52:33;;;;;;;2.53;0.95;;;;;;;19.68;51.81;96335.44;9954652;29;20051;-52
2022/06/22 16:57:55;;;;;;;2.38;0.98;;;;;;;19.67;51.89;96340.06;9936683;29;20063;-51
2022/06/22 17:03:20;;;;;;;2.63;1.35;;;;;;;19.66;52.08;96333.09;9931645;29;20717;-51
2022/06/22 17:09:07;;;;;;;2.60;1.17;;;;;;;19.68;52.25;96347.03;9928486;29;20063;-54
2022/06/22 17:14:29;;;;;;;1.92;1.30;;;;;;;19.79;51.20;96342.00;9923924;29;20489;-54
2022/06/22 17:20:13;;;;;;;1.70;1.40;;;;;;;19.86;50.37;96347.66;9935573;29;20062;-54
2022/06/22 17:25:42;;;;;;;3.60;1.40;;;;;;;19.89;50.58;96348.88;9937431;29;20063;-53
2022/06/22 17:31:35;;;;;;;2.30;1.40;;;;;;;19.89;50.80;96355.06;9934149;29;20435;-52
2022/06/22 17:37:07;;;;;;;2.90;1.83;;;;;;;19.91;51.61;96355.53;9946436;29;20062;-52
2022/06/22 17:42:51;;;;;;;3.63;1.52;;;;;;;19.94;51.73;96360.28;9938441;29;20634;-51
2022/06/22 17:48:40;;;;;;;6.45;1.73;;;;;;;19.97;51.86;96361.50;9934295;29;20405;-52
2022/06/22 17:54:12;;;;;;;4.50;1.52;;;;;;;19.97;51.93;96360.72;9931820;29;20062;-53
2022/06/22 17:59:38;;;;;;;2.42;1.42;;;;;;;19.97;51.52;96371.53;9931120;29;20060;-52
2022/06/22 18:05:31;;;;;;;2.65;1.27;;;;;;;19.96;51.26;96365.34;9917113;29;20401;-53
2022/06/22 18:11:01;;;;;;;3.70;1.30;;;;;;;19.93;51.33;96374.94;9921798;29;20071;-52
2022/06/22 18:16:34;;;;;;;2.63;1.42;;;;;;;19.94;51.35;96376.50;9922039;29;20059;-53
2022/06/22 18:22:03;;;;;;;1.65;1.25;;;;;;;19.97;50.91;96382.34;9935410;29;20074;-53
2022/06/22 18:27:42;;;;;;;1.48;1.10;;;;;;;19.93;50.98;96380.34;9937059;29;20054;-53
2022/06/22 18:33:20;;;;;;;1.95;1.20;;;;;;;19.88;51.20;96382.47;9908530;29;20059;-56
2022/06/22 18:44:27;;;;;;;2.88;1.35;;;;;;;19.84;51.38;96376.16;9912645;29;20535;-53
2022/06/22 18:49:53;;;;;;;1.38;1.27;;;;;;;19.84;51.49;96381.56;9909042;29;20059;-54
2022/06/22 18:55:19;;;;;;;2.90;1.30;;;;;;;19.85;51.53;96377.72;9909864;29;20066;-54
2022/06/22 19:00:58;;;;;;;1.40;1.20;;;;;;;19.83;51.29;96378.03;9922078;29;20066;-54
2022/06/22 19:06:25;;;;;;;2.83;1.20;;;;;;;19.83;51.32;96388.88;9916827;29;20055;-53
2022/06/22 19:11:54;;;;;;;2.03;1.45;;;;;;;19.81;51.47;96383.00;9938569;29;20082;-53
2022/06/22 19:17:56;;;;;;;1.42;1.17;;;;;;;19.82;51.31;96389.22;9912109;29;20055;-53
2022/06/22 19:23:36;;;;;;;1.95;1.20;;;;;;;19.80;51.16;96386.03;9908554;29;20076;-54
2022/06/22 19:29:12;;;;;;;3.65;1.42;;;;;;;19.81;51.01;96387.63;9928330;29;20066;-53
2022/06/22 19:34:40;;;;;;;1.75;1.20;;;;;;;19.80;50.95;96408.47;9922270;29;20529;-53
2022/06/22 19:40:19;;;;;;;2.30;1.30;;;;;;;19.82;50.77;96416.25;9915630;29;20051;-53
2022/06/22 19:45:53;;;;;;;3.13;1.20;;;;;;;19.79;50.59;96406.09;9924395;29;20050;-54
2022/06/22 19:51:26;;;;;;;3.53;1.30;;;;;;;19.79;50.40;96404.19;9943300;29;20138;-54
2022/06/22 19:56:48;;;;;;;2.55;1.30;;;;;;;19.79;50.50;96400.69;9932039;29;20127;-54
2022/06/22 20:02:39;;;;;;;2.85;1.10;;;;;;;19.80;50.36;96407.66;9913829;29;20511;-54
2022/06/22 20:08:04;;;;;;;1.58;1.15;;;;;;;19.79;50.31;96406.09;9930815;29;20067;-52
2022/06/22 20:13:50;;;;;;;1.30;1.15;;;;;;;19.80;50.25;96418.47;9930098;29;20446;-53
2022/06/22 20:19:10;;;;;;;1.35;1.25;;;;;;;19.79;50.26;96416.91;9944993;29;20064;-54
2022/06/22 20:25:01;;;;;;;2.72;1.45;;;;;;;19.78;50.26;96418.00;9943977;29;20058;-54
2022/06/22 20:30:41;;;;;;;1.35;1.10;;;;;;;19.78;50.55;96431.53;9899572;29;20507;-51
2022/06/22 20:36:10;;;;;;;2.25;1.20;;;;;;;19.77;50.77;96430.75;9936019;29;20059;-52
2022/06/22 20:41:54;;;;;;;1.80;1.40;;;;;;;19.77;50.99;96430.75;9904730;29;20093;-52
2022/06/22 20:47:24;;;;;;;1.42;1.20;;;;;;;19.77;51.42;96441.56;9926566;29;20063;-50
2022/06/22 20:52:47;;;;;;;1.60;1.40;;;;;;;19.77;51.43;96435.38;9919699;29;20059;-52
2022/06/22 20:58:13;;;;;;;2.20;1.48;;;;;;;19.76;51.42;96445.41;9922936;29;20059;-52
2022/06/22 21:03:39;;;;;;;2.28;1.40;;;;;;;19.76;51.33;96442.69;9909257;29;20626;-51
2022/06/22 21:09:02;;;;;;;1.63;1.27;;;;;;;19.76;51.43;96450.81;9924032;29;20132;-52
2022/06/22 21:14:26;;;;;;;1.20;1.10;;;;;;;19.75;51.48;96455.41;9905729;29;20066;-52
2022/06/22 21:19:56;;;;;;;1.48;1.20;;;;;;;19.75;51.49;96457.31;9922113;29;20067;-53
2022/06/22 21:25:27;;;;;;;1.85;1.40;;;;;;;19.76;51.48;96461.63;9917687;29;20060;-53
2022/06/22 21:31:07;;;;;;;2.97;1.40;;;;;;;19.75;51.60;96457.31;9902598;29;20059;-53
2022/06/22 21:37:13;;;;;;;2.22;1.55;;;;;;;19.74;51.52;96470.06;9929944;29;20062;-52
2022/06/22 21:42:47;;;;;;;1.70;1.38;;;;;;;19.75;51.72;96476.25;9909499;29;20058;-52
2022/06/22 21:48:17;;;;;;;1.35;1.25;;;;;;;19.74;51.72;96472.75;9917386;29;20051;-53
2022/06/22 21:53:48;;;;;;;1.80;1.25;;;;;;;19.74;51.73;96477.38;9919442;29;20403;-53
2022/06/22 21:59:25;;;;;;;1.75;1.40;;;;;;;19.75;51.80;96478.94;9936780;29;20056;-52
2022/06/22 22:05:11;;;;;;;2.35;1.20;;;;;;;19.73;51.76;96479.28;9930377;29;20059;-51
2022/06/22 22:11:04;;;;;;;1.38;1.23;;;;;;;19.74;51.93;96472.75;9944398;29;20058;-53
2022/06/22 22:16:27;;;;;;;1.90;1.33;;;;;;;19.74;52.04;96485.50;9934098;29;20062;-52
2022/06/22 22:21:49;;;;;;;1.85;1.40;;;;;;;19.73;52.05;96486.59;9940782;29;20059;-53
2022/06/22 22:27:28;;;;;;;1.85;1.40;;;;;;;19.72;52.06;96488.50;9927786;29;20122;-53
2022/06/22 22:32:48;;;;;;;6.75;1.95;;;;;;;19.72;52.04;96471.53;9930335;29;20128;-52
2022/06/22 22:38:13;;;;;;;1.50;1.40;;;;;;;19.72;52.23;96485.81;9950441;29;20069;-50
2022/06/22 22:43:49;;;;;;;2.88;1.38;;;;;;;19.73;52.22;96483.88;9953314;29;20059;-51
2022/06/22 22:49:30;;;;;;;2.42;1.50;;;;;;;19.73;52.33;96483.88;9927033;29;20095;-51
2022/06/22 22:54:52;;;;;;;1.95;1.42;;;;;;;19.71;52.25;96486.09;9935424;29;20065;-53
2022/06/22 23:00:12;;;;;;;1.73;1.50;;;;;;;19.72;52.44;96487.72;9942671;29;20058;-51
2022/06/22 23:05:34;;;;;;;1.65;1.45;;;;;;;19.72;52.49;96491.22;9950287;29;20089;-50
2022/06/22 23:10:59;;;;;;;1.90;1.70;;;;;;;19.72;52.46;96490.44;9945872;29;20058;-53
2022/06/22 23:16:22;;;;;;;1.80;1.50;;;;;;;19.71;52.23;96486.09;9937133;29;20581;-50
2022/06/22 23:21:43;;;;;;;1.50;1.40;;;;;;;19.71;52.37;96486.91;9938499;29;20515;-51
2022/06/22 23:27:06;;;;;;;3.72;1.40;;;;;;;19.71;52.53;96491.50;9922425;29;20669;-50
2022/06/22 23:32:26;;;;;;;6.10;1.80;;;;;;;19.70;52.56;96490.72;9943998;29;20127;-53
2022/06/22 23:37:55;;;;;;;4.50;1.50;;;;;;;19.70;52.54;96488.03;9943390;29;20073;-52
2022/06/22 23:43:26;;;;;;;2.42;1.67;;;;;;;19.70;52.63;96485.31;9947551;29;20058;-50
2022/06/22 23:48:49;;;;;;;1.65;1.45;;;;;;;19.69;52.54;96477.53;9930880;29;20070;-53
2022/06/22 23:54:18;;;;;;;2.08;1.58;;;;;;;19.68;52.64;96473.25;9932850;29;20067;-52
2022/06/22 23:59:41;;;;;;;1.48;1.38;;;;;;;19.68;52.56;96481.34;9945964;29;20055;-49
